Time;durP1;ratioP1;P1;durP2;ratioP2;P2;SDS_P1;SDS_P2;PMS_P1;PMS_P2;Temp;Humidity;BMP_temperature;BMP_pressure;BME280_temperature;BME280_humidity;BME280_pressure;Samples;Min_cycle;Max_cycle;Signal;HPM_P1;HPM_P2
2022/01/08 00:00:14;;;;;;;;;;;13.60;99.90;;;;;;5038500;28;977;-55
2022/01/08 00:02:43;;;;;;;;;;;13.60;99.90;;;;;;5039267;28;1920;-45
2022/01/08 00:05:10;;;;;;;;;;;13.60;99.90;;;;;;5039677;28;896;-45
2022/01/08 00:07:36;;;;;;;;;;;13.60;99.90;;;;;;5039625;28;797;-45
2022/01/08 00:10:03;;;;;;;;;;;13.60;99.90;;;;;;5039510;28;1190;-55
2022/01/08 00:12:30;;;;;;;;;;;13.50;99.90;;;;;;5035455;28;1219;-54
2022/01/08 00:14:57;;;;;;;;;;;13.50;99.90;;;;;;5039327;28;878;-55
2022/01/08 00:17:28;;;;;;;;;;;13.50;99.90;;;;;;5038296;28;1306;-45
2022/01/08 00:19:58;;;;;;;;;;;13.50;99.90;;;;;;5004859;28;1196;-55
2022/01/08 00:22:26;;;;;;;;;;;13.50;99.90;;;;;;5039188;28;1910;-55
2022/01/08 00:24:52;;;;;;;;;;;13.50;99.90;;;;;;5004506;28;1041;-45
2022/01/08 00:27:22;;;;;;;;;;;13.40;99.90;;;;;;5021522;28;962;-45
2022/01/08 00:29:49;;;;;;;;;;;13.40;99.90;;;;;;5038986;28;909;-45
2022/01/08 00:32:17;;;;;;;;;;;13.40;99.90;;;;;;5038773;28;939;-45
2022/01/08 00:34:43;;;;;;;;;;;13.40;99.90;;;;;;5039047;28;767;-45
2022/01/08 00:37:10;;;;;;;;;;;13.40;99.90;;;;;;5038965;28;909;-45
2022/01/08 00:39:37;;;;;;;;;;;13.40;99.90;;;;;;5020528;28;1073;-45
2022/01/08 00:42:04;;;;;;;;;;;13.40;99.90;;;;;;5038339;28;1969;-45
2022/01/08 00:44:30;;;;;;;;;;;13.40;99.90;;;;;;5021476;28;978;-55
2022/01/08 00:46:56;;;;;;;;;;;13.40;99.90;;;;;;4978063;28;947;-55
2022/01/08 00:49:24;;;;;;;;;;;13.30;99.90;;;;;;4978363;28;893;-55
2022/01/08 00:51:54;;;;;;;;;;;13.30;99.90;;;;;;4962396;28;1041;-55
2022/01/08 00:54:21;;;;;;;;;;;13.30;99.90;;;;;;4962426;28;1199;-55
2022/01/08 00:56:48;;;;;;;;;;;13.30;99.90;;;;;;4978199;28;874;-54
2022/01/08 00:59:14;;;;;;;;;;;13.30;99.90;;;;;;4946050;28;953;-55
2022/01/08 01:01:43;;;;;;;;;;;13.30;99.90;;;;;;4977806;28;960;-55
2022/01/08 01:04:09;;;;;;;;;;;13.30;99.90;;;;;;4961918;28;1918;-55
2022/01/08 01:06:37;;;;;;;;;;;13.20;99.90;;;;;;4978141;28;842;-55
2022/01/08 01:09:03;;;;;;;;;;;13.20;99.90;;;;;;4962091;28;988;-55
2022/01/08 01:11:29;;;;;;;;;;;13.30;99.90;;;;;;4977961;28;837;-54
2022/01/08 01:13:59;;;;;;;;;;;13.30;99.90;;;;;;4977801;28;1315;-55
2022/01/08 01:16:46;;;;;;;;;;;13.30;99.90;;;;;;4978005;28;972;-55
2022/01/08 01:19:16;;;;;;;;;;;13.20;99.90;;;;;;5000848;28;916;-55
2022/01/08 01:21:42;;;;;;;;;;;13.20;99.90;;;;;;5018475;28;746;-55
2022/01/08 01:24:16;;;;;;;;;;;13.20;99.90;;;;;;5017020;28;1972;-55
2022/01/08 01:27:17;;;;;;;;;;;13.20;99.90;;;;;;5018440;28;876;-55
2022/01/08 01:29:49;;;;;;;;;;;13.20;99.90;;;;;;5015748;28;1690;-55
2022/01/08 01:48:45;;;;;;;;;;;13.10;99.90;;;;;;5018182;28;747;-55
2022/01/08 01:51:19;;;;;;;;;;;13.10;99.90;;;;;;5017732;28;1079;-55
2022/01/08 01:53:46;;;;;;;;;;;13.00;99.90;;;;;;5031872;28;1036;-55
2022/01/08 01:56:12;;;;;;;;;;;13.00;99.90;;;;;;5017787;28;774;-55
2022/01/08 01:58:38;;;;;;;;;;;13.00;99.90;;;;;;5017752;28;1025;-45
2022/01/08 02:01:06;;;;;;;;;;;13.00;99.90;;;;;;5015793;28;919;-45
2022/01/08 02:03:34;;;;;;;;;;;13.00;99.90;;;;;;4998326;28;1906;-45
2022/01/08 02:06:02;;;;;;;;;;;12.90;99.90;;;;;;5016729;28;804;-45
2022/01/08 02:08:29;;;;;;;;;;;13.00;99.90;;;;;;5017532;28;857;-45
2022/01/08 02:10:55;;;;;;;;;;;13.00;99.90;;;;;;5016253;28;871;-45
2022/01/08 02:13:22;;;;;;;;;;;13.00;99.90;;;;;;4999623;28;1302;-45
2022/01/08 02:15:52;;;;;;;;;;;12.90;99.90;;;;;;5013814;28;1190;-45
2022/01/08 02:18:25;;;;;;;;;;;12.90;99.90;;;;;;5015446;28;1082;-45
2022/01/08 02:20:52;;;;;;;;;;;12.90;99.90;;;;;;5015667;28;874;-45
2022/01/08 02:23:19;;;;;;;;;;;12.90;99.90;;;;;;5016929;28;1961;-45
2022/01/08 02:25:45;;;;;;;;;;;12.90;99.90;;;;;;4999148;28;947;-45
2022/01/08 02:28:12;;;;;;;;;;;12.90;99.90;;;;;;4999422;28;970;-45
2022/01/08 02:30:39;;;;;;;;;;;12.90;99.90;;;;;;5015562;28;1010;-45
2022/01/08 02:33:05;;;;;;;;;;;12.80;99.90;;;;;;5017240;28;900;-45
2022/01/08 02:35:32;;;;;;;;;;;12.90;99.90;;;;;;5017102;28;888;-45
2022/01/08 02:38:00;;;;;;;;;;;12.80;99.90;;;;;;5016971;28;842;-45
2022/01/08 02:40:26;;;;;;;;;;;12.80;99.90;;;;;;5015660;28;941;-45
2022/01/08 02:43:01;;;;;;;;;;;12.80;99.90;;;;;;5016519;28;1961;-45
2022/01/08 02:45:27;;;;;;;;;;;12.80;99.90;;;;;;5017057;28;943;-45
2022/01/08 02:47:54;;;;;;;;;;;12.70;99.90;;;;;;5016780;28;793;-45
2022/01/08 02:50:21;;;;;;;;;;;12.70;99.90;;;;;;5016735;28;1189;-45
2022/01/08 02:52:48;;;;;;;;;;;12.70;99.90;;;;;;5015909;28;842;-45
2022/01/08 02:55:14;;;;;;;;;;;12.70;99.90;;;;;;5016597;28;939;-45
2022/01/08 02:57:40;;;;;;;;;;;12.70;99.90;;;;;;4995282;28;1144;-45
2022/01/08 03:00:08;;;;;;;;;;;12.70;99.90;;;;;;4995445;28;908;-45
2022/01/08 03:02:46;;;;;;;;;;;12.70;99.90;;;;;;4995067;28;1902;-45
2022/01/08 03:05:12;;;;;;;;;;;12.70;99.90;;;;;;4995374;28;811;-45
2022/01/08 03:07:45;;;;;;;;;;;12.70;99.90;;;;;;4995313;28;1016;-45
2022/01/08 03:10:17;;;;;;;;;;;12.70;99.90;;;;;;4995306;28;869;-45
2022/01/08 03:12:43;;;;;;;;;;;12.60;99.90;;;;;;4998926;28;1067;-45
2022/01/08 03:15:12;;;;;;;;;;;12.60;99.90;;;;;;5014785;28;1059;-45
2022/01/08 03:17:38;;;;;;;;;;;12.60;99.90;;;;;;4998186;28;821;-45
2022/01/08 03:20:09;;;;;;;;;;;12.60;99.90;;;;;;5011405;28;2614;-45
2022/01/08 03:22:38;;;;;;;;;;;12.60;99.90;;;;;;4998069;28;1976;-45
2022/01/08 03:25:05;;;;;;;;;;;12.60;99.90;;;;;;5013594;28;902;-45
2022/01/08 03:27:31;;;;;;;;;;;12.60;99.90;;;;;;4998268;28;849;-45
2022/01/08 03:29:57;;;;;;;;;;;12.60;99.90;;;;;;5016079;28;818;-45
2022/01/08 03:32:23;;;;;;;;;;;12.60;99.90;;;;;;5016087;28;832;-45
2022/01/08 03:34:51;;;;;;;;;;;12.50;99.90;;;;;;5014751;28;964;-45
2022/01/08 03:37:18;;;;;;;;;;;12.50;99.90;;;;;;5014438;28;1042;-45
2022/01/08 03:39:45;;;;;;;;;;;12.50;99.90;;;;;;5001530;28;1537;-45
2022/01/08 03:42:12;;;;;;;;;;;12.50;99.90;;;;;;5016110;28;905;-45
2022/01/08 03:44:40;;;;;;;;;;;12.50;99.90;;;;;;5015974;28;1902;-45
2022/01/08 03:49:51;;;;;;;;;;;12.40;99.90;;;;;;5015998;28;834;-45
2022/01/08 03:52:18;;;;;;;;;;;12.40;99.90;;;;;;5015899;28;798;-45
2022/01/08 03:54:44;;;;;;;;;;;12.40;99.90;;;;;;5015848;28;941;-45
2022/01/08 03:57:10;;;;;;;;;;;12.40;99.90;;;;;;5015983;28;826;-45
2022/01/08 03:59:36;;;;;;;;;;;12.40;99.90;;;;;;5015372;28;1243;-45
2022/01/08 04:02:02;;;;;;;;;;;12.40;99.90;;;;;;5014143;28;1126;-45
2022/01/08 04:04:29;;;;;;;;;;;12.40;99.90;;;;;;5015540;28;1910;-45
2022/01/08 04:06:55;;;;;;;;;;;12.40;99.90;;;;;;5014855;28;1193;-45
2022/01/08 04:09:21;;;;;;;;;;;12.40;99.90;;;;;;5013081;28;1334;-45
2022/01/08 04:11:47;;;;;;;;;;;12.30;99.90;;;;;;5012546;28;866;-45
2022/01/08 04:14:16;;;;;;;;;;;12.30;99.90;;;;;;4996455;28;868;-45
2022/01/08 04:16:48;;;;;;;;;;;12.30;99.90;;;;;;4996055;28;935;-45
2022/01/08 04:19:16;;;;;;;;;;;12.30;99.90;;;;;;4996303;28;932;-45
2022/01/08 04:24:29;;;;;;;;;;;12.30;99.90;;;;;;4996129;28;1906;-45
2022/01/08 04:26:56;;;;;;;;;;;12.30;99.90;;;;;;4996194;28;817;-45
2022/01/08 04:29:27;;;;;;;;;;;12.30;99.90;;;;;;4978610;28;936;-45
2022/01/08 04:31:53;;;;;;;;;;;12.30;99.90;;;;;;4994426;28;875;-45
2022/01/08 04:34:21;;;;;;;;;;;12.20;99.90;;;;;;4996003;28;999;-45
2022/01/08 04:36:47;;;;;;;;;;;12.30;99.90;;;;;;4993847;28;838;-45
2022/01/08 04:39:15;;;;;;;;;;;12.20;99.90;;;;;;4978235;28;972;-45
2022/01/08 04:41:43;;;;;;;;;;;12.20;99.90;;;;;;4996091;28;806;-45
2022/01/08 04:44:10;;;;;;;;;;;12.20;99.90;;;;;;4995688;28;1906;-45
2022/01/08 04:46:38;;;;;;;;;;;12.20;99.90;;;;;;4996700;28;1129;-45
2022/01/08 04:49:05;;;;;;;;;;;12.20;99.90;;;;;;4980818;28;1011;-45
2022/01/08 04:51:31;;;;;;;;;;;12.20;99.90;;;;;;4980626;28;1250;-45
2022/01/08 04:53:59;;;;;;;;;;;12.20;99.90;;;;;;4997128;28;858;-45
2022/01/08 04:56:26;;;;;;;;;;;12.10;99.90;;;;;;4997013;28;855;-45
2022/01/08 04:58:53;;;;;;;;;;;12.10;99.90;;;;;;4996876;28;981;-45
2022/01/08 05:01:20;;;;;;;;;;;12.10;99.90;;;;;;4996573;28;842;-45
2022/01/08 05:03:46;;;;;;;;;;;12.10;99.90;;;;;;4964286;28;1981;-45
2022/01/08 05:06:12;;;;;;;;;;;12.10;99.90;;;;;;4996802;28;1885;-45
2022/01/08 05:08:38;;;;;;;;;;;12.10;99.90;;;;;;4973734;28;906;-45
2022/01/08 05:11:04;;;;;;;;;;;12.10;99.90;;;;;;4979868;28;898;-45
2022/01/08 05:13:32;;;;;;;;;;;12.10;99.90;;;;;;4993458;28;1047;-45
2022/01/08 05:15:59;;;;;;;;;;;12.10;99.90;;;;;;4983429;28;841;-44
2022/01/08 05:18:30;;;;;;;;;;;12.10;99.90;;;;;;4997848;28;962;-45
2022/01/08 05:21:12;;;;;;;;;;;12.10;99.90;;;;;;4993509;28;1006;-45
2022/01/08 05:23:38;;;;;;;;;;;12.10;99.90;;;;;;4991308;28;1977;-44
2022/01/08 05:26:05;;;;;;;;;;;12.00;99.90;;;;;;5018313;28;947;-45
2022/01/08 05:28:31;;;;;;;;;;;12.00;99.90;;;;;;5018519;28;820;-45
2022/01/08 05:30:57;;;;;;;;;;;12.00;99.90;;;;;;5018491;28;879;-45
2022/01/08 05:33:23;;;;;;;;;;;12.00;99.90;;;;;;5018139;28;819;-45
2022/01/08 05:35:50;;;;;;;;;;;12.00;99.90;;;;;;5018276;28;1011;-45
2022/01/08 05:38:16;;;;;;;;;;;12.00;99.90;;;;;;4967934;28;955;-45
2022/01/08 05:40:42;;;;;;;;;;;12.00;99.90;;;;;;4984163;28;1316;-45
2022/01/08 05:43:09;;;;;;;;;;;12.00;99.90;;;;;;5018075;28;2410;-45
2022/01/08 05:45:35;;;;;;;;;;;12.00;99.90;;;;;;5016379;28;1019;-45
2022/01/08 05:48:01;;;;;;;;;;;11.90;99.90;;;;;;5021168;28;1033;-45
2022/01/08 05:50:32;;;;;;;;;;;11.90;99.90;;;;;;5017943;28;878;-45
2022/01/08 05:52:58;;;;;;;;;;;11.90;99.90;;;;;;5017844;28;1067;-54
2022/01/08 05:55:26;;;;;;;;;;;11.90;99.90;;;;;;5017722;28;830;-54
2022/01/08 05:57:52;;;;;;;;;;;11.90;99.90;;;;;;5016889;28;813;-55
2022/01/08 06:00:19;;;;;;;;;;;11.90;99.90;;;;;;5018020;28;800;-55
2022/01/08 06:02:45;;;;;;;;;;;11.80;99.90;;;;;;5016083;28;1902;-55
2022/01/08 06:05:11;;;;;;;;;;;11.80;99.90;;;;;;5017677;28;790;-54
2022/01/08 06:07:38;;;;;;;;;;;11.80;99.90;;;;;;5016588;28;1105;-54
2022/01/08 06:10:07;;;;;;;;;;;11.80;99.90;;;;;;5017504;28;850;-45
2022/01/08 06:12:34;;;;;;;;;;;11.80;99.90;;;;;;5022003;28;1294;-45
2022/01/08 06:15:00;;;;;;;;;;;11.80;99.90;;;;;;5037427;28;854;-55
2022/01/08 06:17:26;;;;;;;;;;;11.80;99.90;;;;;;5037115;28;798;-54
2022/01/08 06:19:54;;;;;;;;;;;11.80;99.90;;;;;;4985522;28;1825;-45
2022/01/08 06:22:20;;;;;;;;;;;11.70;99.90;;;;;;5037143;28;806;-45
2022/01/08 06:24:47;;;;;;;;;;;11.70;99.90;;;;;;5036736;28;1910;-45
2022/01/08 06:27:13;;;;;;;;;;;11.70;99.90;;;;;;5002571;28;944;-45
2022/01/08 06:29:40;;;;;;;;;;;11.70;99.90;;;;;;5018760;28;1041;-45
2022/01/08 06:32:07;;;;;;;;;;;11.70;99.90;;;;;;5036691;28;759;-44
2022/01/08 06:34:35;;;;;;;;;;;11.70;99.90;;;;;;5019101;28;924;-54
2022/01/08 06:37:01;;;;;;;;;;;11.70;99.90;;;;;;5036648;28;944;-45
2022/01/08 06:39:27;;;;;;;;;;;11.70;99.90;;;;;;5019613;28;779;-44
2022/01/08 06:41:54;;;;;;;;;;;11.70;99.90;;;;;;5036395;28;995;-45
2022/01/08 06:44:21;;;;;;;;;;;11.70;99.90;;;;;;5018788;28;1906;-45
2022/01/08 06:46:49;;;;;;;;;;;11.60;99.90;;;;;;5036723;28;857;-45
2022/01/08 06:49:15;;;;;;;;;;;11.60;99.90;;;;;;5002420;28;1026;-55
2022/01/08 06:51:41;;;;;;;;;;;11.60;99.90;;;;;;5036939;28;912;-45
2022/01/08 06:54:07;;;;;;;;;;;11.60;99.90;;;;;;5036106;28;857;-45
2022/01/08 06:56:33;;;;;;;;;;;11.60;99.90;;;;;;5036606;28;846;-55
2022/01/08 06:58:59;;;;;;;;;;;11.60;99.90;;;;;;5036009;28;1072;-55
2022/01/08 07:01:26;;;;;;;;;;;11.60;99.90;;;;;;5035559;28;838;-55
2022/01/08 07:03:55;;;;;;;;;;;11.60;99.90;;;;;;5002086;28;1906;-45
2022/01/08 07:06:22;;;;;;;;;;;11.60;99.90;;;;;;5036282;28;813;-54
2022/01/08 07:08:50;;;;;;;;;;;11.50;99.90;;;;;;5036189;28;1636;-45
2022/01/08 07:11:16;;;;;;;;;;;11.50;99.90;;;;;;4998781;28;885;-45
2022/01/08 07:13:43;;;;;;;;;;;11.50;99.90;;;;;;5036034;28;1040;-44
2022/01/08 07:16:09;;;;;;;;;;;11.50;99.90;;;;;;5035942;28;898;-44
2022/01/08 07:18:35;;;;;;;;;;;11.50;99.90;;;;;;5018436;28;1247;-45
2022/01/08 07:21:02;;;;;;;;;;;11.50;99.90;;;;;;5002010;28;928;-45
2022/01/08 07:23:28;;;;;;;;;;;11.50;99.90;;;;;;5035713;28;1977;-45
2022/01/08 07:25:54;;;;;;;;;;;11.50;99.90;;;;;;5036054;28;854;-45
2022/01/08 07:28:21;;;;;;;;;;;11.50;99.90;;;;;;5036061;28;1041;-54
2022/01/08 07:30:47;;;;;;;;;;;11.50;99.90;;;;;;5035907;28;772;-54
2022/01/08 07:33:13;;;;;;;;;;;11.50;99.90;;;;;;5035682;28;898;-45
2022/01/08 07:35:40;;;;;;;;;;;11.50;99.90;;;;;;5036020;28;849;-55
2022/01/08 07:38:07;;;;;;;;;;;11.50;99.90;;;;;;5035853;28;959;-54
2022/01/08 07:40:35;;;;;;;;;;;11.50;99.90;;;;;;5018031;28;1111;-45
2022/01/08 07:43:01;;;;;;;;;;;11.50;99.90;;;;;;5035661;28;1906;-54
2022/01/08 07:45:27;;;;;;;;;;;11.50;99.90;;;;;;5035732;28;837;-54
2022/01/08 07:47:53;;;;;;;;;;;11.50;99.90;;;;;;4984776;28;961;-54
2022/01/08 07:50:21;;;;;;;;;;;11.50;99.90;;;;;;5035841;28;875;-45
2022/01/08 07:52:48;;;;;;;;;;;11.60;99.90;;;;;;5001464;28;1080;-55
2022/01/08 07:55:15;;;;;;;;;;;11.60;99.90;;;;;;5039874;28;1060;-54
2022/01/08 07:57:42;;;;;;;;;;;11.60;99.90;;;;;;5035929;28;819;-55
2022/01/08 08:00:10;;;;;;;;;;;11.70;99.90;;;;;;5034891;28;945;-45
2022/01/08 08:02:36;;;;;;;;;;;11.80;99.90;;;;;;5035464;28;880;-45
2022/01/08 08:05:03;;;;;;;;;;;11.80;99.90;;;;;;5035821;28;1906;-45
2022/01/08 08:07:36;;;;;;;;;;;11.90;99.90;;;;;;5018357;28;959;-55
2022/01/08 08:10:10;;;;;;;;;;;12.00;99.90;;;;;;5016741;28;1330;-55
2022/01/08 08:12:37;;;;;;;;;;;12.00;99.90;;;;;;5013275;28;1365;-55
2022/01/08 08:15:04;;;;;;;;;;;12.10;99.90;;;;;;5011942;28;1579;-55
2022/01/08 08:17:30;;;;;;;;;;;12.20;99.90;;;;;;5015469;28;771;-54
2022/01/08 08:19:58;;;;;;;;;;;12.30;99.90;;;;;;5016065;28;873;-55
2022/01/08 08:22:24;;;;;;;;;;;12.40;99.90;;;;;;5018072;28;885;-55
2022/01/08 08:24:52;;;;;;;;;;;12.50;99.90;;;;;;5017700;28;1953;-55
2022/01/08 08:27:18;;;;;;;;;;;12.50;99.90;;;;;;5018193;28;1146;-45
2022/01/08 08:29:45;;;;;;;;;;;12.60;99.90;;;;;;5017697;28;791;-45
2022/01/08 08:32:14;;;;;;;;;;;12.70;99.90;;;;;;4985413;28;1881;-56
2022/01/08 08:34:40;;;;;;;;;;;12.80;99.90;;;;;;5017670;28;928;-55
2022/01/08 08:37:06;;;;;;;;;;;12.90;99.90;;;;;;5017254;28;762;-55
2022/01/08 08:39:35;;;;;;;;;;;13.00;99.90;;;;;;5017113;28;861;-55
2022/01/08 08:42:01;;;;;;;;;;;13.00;99.90;;;;;;5019197;28;859;-55
2022/01/08 08:44:28;;;;;;;;;;;13.20;99.90;;;;;;5016908;28;1902;-55
2022/01/08 08:46:55;;;;;;;;;;;13.30;99.90;;;;;;5018994;28;887;-45
2022/01/08 08:49:22;;;;;;;;;;;13.30;99.90;;;;;;5019305;28;1157;-55
2022/01/08 08:51:49;;;;;;;;;;;13.40;99.90;;;;;;4969129;28;1069;-55
2022/01/08 08:54:16;;;;;;;;;;;13.50;99.90;;;;;;5019259;28;838;-55
2022/01/08 08:56:42;;;;;;;;;;;13.60;99.90;;;;;;5019148;28;906;-55
2022/01/08 08:59:09;;;;;;;;;;;13.60;99.90;;;;;;5018065;28;860;-55
2022/01/08 09:01:36;;;;;;;;;;;13.70;99.90;;;;;;5017898;28;880;-55
2022/01/08 09:04:03;;;;;;;;;;;13.80;99.90;;;;;;5018713;28;1957;-56
2022/01/08 09:06:30;;;;;;;;;;;13.90;99.90;;;;;;5018626;28;886;-55
2022/01/08 09:08:56;;;;;;;;;;;13.90;99.90;;;;;;5016661;28;1402;-55
2022/01/08 09:11:24;;;;;;;;;;;14.00;99.90;;;;;;5015508;28;854;-55
2022/01/08 09:13:51;;;;;;;;;;;14.10;99.90;;;;;;5035138;28;1280;-55
2022/01/08 09:16:18;;;;;;;;;;;14.10;99.90;;;;;;5038589;28;884;-55
2022/01/08 09:18:45;;;;;;;;;;;14.20;99.90;;;;;;5019774;28;993;-55
2022/01/08 09:21:12;;;;;;;;;;;14.20;99.90;;;;;;5003250;28;980;-54
2022/01/08 09:23:40;;;;;;;;;;;14.20;99.90;;;;;;5037530;28;1982;-54
2022/01/08 09:26:07;;;;;;;;;;;14.20;99.90;;;;;;5038388;28;817;-55
2022/01/08 09:28:35;;;;;;;;;;;14.30;99.90;;;;;;5038129;28;984;-55
2022/01/08 09:31:03;;;;;;;;;;;14.20;99.90;;;;;;5038012;28;847;-55
2022/01/08 09:33:30;;;;;;;;;;;14.20;99.90;;;;;;5037931;28;797;-54
2022/01/08 09:35:56;;;;;;;;;;;14.20;99.90;;;;;;5037925;28;1122;-55
2022/01/08 09:38:26;;;;;;;;;;;14.20;99.90;;;;;;5004081;28;952;-54
2022/01/08 09:40:53;;;;;;;;;;;14.20;99.90;;;;;;5035508;28;918;-55
2022/01/08 09:43:20;;;;;;;;;;;14.20;99.90;;;;;;5037485;28;1967;-55
2022/01/08 09:45:47;;;;;;;;;;;14.10;99.90;;;;;;5003629;28;1008;-54
2022/01/08 09:48:14;;;;;;;;;;;14.10;99.90;;;;;;5038324;28;1092;-54
2022/01/08 09:50:41;;;;;;;;;;;14.10;99.90;;;;;;5037653;28;893;-54
2022/01/08 09:53:08;;;;;;;;;;;14.10;99.90;;;;;;5037035;28;1111;-54
2022/01/08 09:55:34;;;;;;;;;;;14.00;99.90;;;;;;5037415;28;868;-55
2022/01/08 09:58:01;;;;;;;;;;;14.00;99.90;;;;;;5037349;28;886;-45
2022/01/08 10:00:30;;;;;;;;;;;13.90;99.90;;;;;;5037177;28;862;-45
2022/01/08 10:03:18;;;;;;;;;;;13.90;99.90;;;;;;5036998;28;1251;-45
2022/01/08 10:05:48;;;;;;;;;;;13.90;99.90;;;;;;5036298;28;1379;-54
2022/01/08 10:08:15;;;;;;;;;;;13.90;99.90;;;;;;5037459;28;785;-55
2022/01/08 10:10:52;;;;;;;;;;;13.80;99.90;;;;;;5037393;28;763;-55
2022/01/08 10:13:25;;;;;;;;;;;13.80;99.90;;;;;;5035589;28;1075;-45
2022/01/08 10:18:39;;;;;;;;;;;13.80;99.90;;;;;;5037227;28;735;-54
2022/01/08 10:21:20;;;;;;;;;;;13.90;99.90;;;;;;5036999;28;1494;-45
2022/01/08 10:23:56;;;;;;;;;;;13.90;99.90;;;;;;5037286;28;1977;-54
2022/01/08 10:26:32;;;;;;;;;;;14.00;99.90;;;;;;4970557;28;991;-54
2022/01/08 10:28:59;;;;;;;;;;;14.00;99.90;;;;;;5036785;28;811;-54
2022/01/08 10:31:39;;;;;;;;;;;14.10;99.90;;;;;;5019632;28;935;-45
2022/01/08 10:34:11;;;;;;;;;;;14.10;99.90;;;;;;5037062;28;1081;-45
2022/01/08 10:36:39;;;;;;;;;;;14.10;99.90;;;;;;5036934;28;819;-45
2022/01/08 10:39:07;;;;;;;;;;;14.20;99.90;;;;;;4986019;28;1314;-45
2022/01/08 10:41:39;;;;;;;;;;;14.20;99.90;;;;;;4996475;28;967;-45
2022/01/08 10:44:24;;;;;;;;;;;14.20;99.90;;;;;;5018808;28;1891;-45
2022/01/08 10:46:53;;;;;;;;;;;14.20;99.90;;;;;;5002106;28;954;-54
2022/01/08 10:49:31;;;;;;;;;;;14.20;99.90;;;;;;5036506;28;774;-54
2022/01/08 10:52:06;;;;;;;;;;;14.20;99.90;;;;;;5002427;28;1026;-55
2022/01/08 10:54:43;;;;;;;;;;;14.20;99.90;;;;;;5035075;28;1058;-54
2022/01/08 10:57:14;;;;;;;;;;;14.20;99.90;;;;;;5020368;28;1012;-45
2022/01/08 10:59:44;;;;;;;;;;;14.20;99.90;;;;;;5036454;28;774;-54
2022/01/08 11:02:13;;;;;;;;;;;14.20;99.90;;;;;;5002155;28;953;-45
2022/01/08 11:04:41;;;;;;;;;;;14.20;99.90;;;;;;5036338;28;1966;-54
2022/01/08 11:07:17;;;;;;;;;;;14.20;99.90;;;;;;5035756;28;861;-54
2022/01/08 11:09:46;;;;;;;;;;;14.10;99.90;;;;;;5036233;28;965;-54
2022/01/08 11:12:14;;;;;;;;;;;14.10;99.90;;;;;;5034185;28;1034;-45
2022/01/08 11:17:35;;;;;;;;;;;14.00;99.90;;;;;;5036020;28;810;-45
2022/01/08 11:20:06;;;;;;;;;;;14.00;99.90;;;;;;5018252;28;984;-54
2022/01/08 11:22:33;;;;;;;;;;;14.00;99.90;;;;;;5035335;28;926;-55
2022/01/08 11:25:21;;;;;;;;;;;13.90;99.90;;;;;;5036145;28;1977;-45
2022/01/08 11:28:14;;;;;;;;;;;13.90;99.90;;;;;;5036060;28;977;-45
2022/01/08 11:31:02;;;;;;;;;;;13.90;99.90;;;;;;4956381;29;998;-45
2022/01/08 11:33:32;;;;;;;;;;;13.90;99.90;;;;;;4936618;29;1015;-45
2022/01/08 11:35:59;;;;;;;;;;;13.90;99.90;;;;;;4936733;29;1030;-45
2022/01/08 11:38:26;;;;;;;;;;;13.90;99.90;;;;;;4937159;29;1320;-45
2022/01/08 11:40:55;;;;;;;;;;;13.90;99.90;;;;;;4936840;29;1037;-45
2022/01/08 11:43:23;;;;;;;;;;;13.90;99.90;;;;;;4936970;29;951;-45
2022/01/08 11:45:59;;;;;;;;;;;13.90;99.90;;;;;;4936209;29;1903;-45
2022/01/08 11:48:36;;;;;;;;;;;13.90;99.90;;;;;;4936644;29;951;-55
2022/01/08 11:51:05;;;;;;;;;;;13.90;99.90;;;;;;4936912;29;979;-45
2022/01/08 11:53:34;;;;;;;;;;;13.90;99.90;;;;;;4934950;29;1396;-45
2022/01/08 11:56:03;;;;;;;;;;;13.90;99.90;;;;;;4939896;29;991;-45
2022/01/08 11:58:31;;;;;;;;;;;13.90;99.90;;;;;;4908523;29;1036;-45
2022/01/08 12:00:58;;;;;;;;;;;13.90;99.90;;;;;;4940182;29;1383;-54
2022/01/08 12:03:48;;;;;;;;;;;13.90;99.90;;;;;;4942579;29;1410;-54
2022/01/08 12:09:27;;;;;;;;;;;14.00;99.90;;;;;;4996564;28;1513;-54
2022/01/08 12:12:05;;;;;;;;;;;14.00;99.90;;;;;;5036733;28;806;-55
2022/01/08 12:14:34;;;;;;;;;;;14.00;99.90;;;;;;5018818;28;1040;-45
2022/01/08 12:17:19;;;;;;;;;;;14.00;99.90;;;;;;5039319;28;869;-55
2022/01/08 12:20:10;;;;;;;;;;;14.00;99.90;;;;;;5037723;28;834;-54
2022/01/08 12:22:38;;;;;;;;;;;14.00;99.90;;;;;;4959628;29;1058;-54
2022/01/08 12:25:05;;;;;;;;;;;14.00;99.90;;;;;;4959500;29;1976;-54
2022/01/08 12:27:51;;;;;;;;;;;14.00;99.90;;;;;;4958373;29;1156;-54
2022/01/08 12:30:17;;;;;;;;;;;14.00;99.90;;;;;;4927459;29;941;-45
2022/01/08 12:32:47;;;;;;;;;;;14.00;99.90;;;;;;4959038;29;958;-45
2022/01/08 12:35:37;;;;;;;;;;;14.00;99.90;;;;;;4959787;29;840;-54
2022/01/08 12:38:21;;;;;;;;;;;14.00;99.90;;;;;;4944050;29;914;-54
2022/01/08 12:40:49;;;;;;;;;;;14.00;99.90;;;;;;4927531;29;956;-54
2022/01/08 12:43:33;;;;;;;;;;;14.00;99.90;;;;;;4958916;29;899;-44
2022/01/08 12:46:20;;;;;;;;;;;14.00;99.90;;;;;;4958952;29;1977;-44
2022/01/08 12:49:05;;;;;;;;;;;14.00;99.90;;;;;;4942955;29;844;-55
2022/01/08 12:51:52;;;;;;;;;;;13.90;99.90;;;;;;4959017;29;882;-54
2022/01/08 12:54:20;;;;;;;;;;;14.00;99.90;;;;;;4958768;29;999;-54
2022/01/08 12:56:53;;;;;;;;;;;13.90;99.90;;;;;;4959000;29;811;-46
2022/01/08 12:59:20;;;;;;;;;;;13.90;99.90;;;;;;4985928;28;1008;-55
2022/01/08 13:01:50;;;;;;;;;;;13.90;99.90;;;;;;5038535;28;953;-45
2022/01/08 13:04:21;;;;;;;;;;;13.90;99.90;;;;;;5038302;28;1902;-45
2022/01/08 13:06:48;;;;;;;;;;;13.90;99.90;;;;;;5021488;28;841;-45
2022/01/08 13:09:15;;;;;;;;;;;13.90;99.90;;;;;;5038805;28;872;-45
2022/01/08 13:11:44;;;;;;;;;;;13.90;99.90;;;;;;5035341;28;1318;-45
2022/01/08 13:14:20;;;;;;;;;;;13.90;99.90;;;;;;5038063;28;1729;-45
2022/01/08 13:16:51;;;;;;;;;;;13.90;99.90;;;;;;5038626;28;837;-45
2022/01/08 13:19:22;;;;;;;;;;;13.90;99.90;;;;;;5037916;28;877;-45
2022/01/08 13:22:03;;;;;;;;;;;13.90;99.90;;;;;;5038140;28;932;-45
2022/01/08 13:24:34;;;;;;;;;;;13.90;99.90;;;;;;5003784;28;1899;-45
2022/01/08 13:27:01;;;;;;;;;;;13.90;99.90;;;;;;4997012;28;912;-45
2022/01/08 13:29:36;;;;;;;;;;;13.90;99.90;;;;;;4996985;28;871;-45
2022/01/08 13:32:20;;;;;;;;;;;13.90;99.90;;;;;;4996955;28;957;-45
2022/01/08 13:34:48;;;;;;;;;;;13.90;99.90;;;;;;4996780;28;867;-55
2022/01/08 13:37:18;;;;;;;;;;;13.90;99.90;;;;;;4980448;28;976;-55
2022/01/08 13:39:47;;;;;;;;;;;13.90;99.90;;;;;;4996941;28;818;-45
2022/01/08 13:42:24;;;;;;;;;;;13.90;99.90;;;;;;4993935;28;1109;-45
2022/01/08 13:45:10;;;;;;;;;;;13.90;99.90;;;;;;4964164;28;1894;-45
2022/01/08 13:47:35;;;;;;;;;;;13.90;99.90;;;;;;4996800;28;1694;-45
2022/01/08 13:50:22;;;;;;;;;;;13.90;99.90;;;;;;4996531;28;962;-54
2022/01/08 13:53:08;;;;;;;;;;;13.90;99.90;;;;;;4996446;28;855;-54
2022/01/08 13:55:37;;;;;;;;;;;13.90;99.90;;;;;;4996655;28;840;-55
2022/01/08 13:58:05;;;;;;;;;;;13.90;99.90;;;;;;5017576;28;952;-54
2022/01/08 14:00:32;;;;;;;;;;;13.90;99.90;;;;;;5037768;28;778;-45
2022/01/08 14:02:59;;;;;;;;;;;13.90;99.90;;;;;;5018990;28;1381;-45
2022/01/08 14:05:27;;;;;;;;;;;13.90;99.90;;;;;;5033338;28;1982;-45
2022/01/08 14:08:06;;;;;;;;;;;13.80;99.90;;;;;;5003247;28;1237;-45
2022/01/08 14:10:37;;;;;;;;;;;13.80;99.90;;;;;;5002581;28;1284;-45
2022/01/08 14:13:41;;;;;;;;;;;13.80;99.90;;;;;;5036413;28;1171;-45
2022/01/08 14:16:10;;;;;;;;;;;13.80;99.90;;;;;;5031965;28;1034;-45
2022/01/08 14:18:38;;;;;;;;;;;13.80;99.90;;;;;;5035181;28;1264;-45
2022/01/08 14:21:12;;;;;;;;;;;13.80;99.90;;;;;;5037617;28;1121;-55
2022/01/08 14:23:39;;;;;;;;;;;13.80;99.90;;;;;;5037111;28;799;-55
2022/01/08 14:26:29;;;;;;;;;;;13.70;99.90;;;;;;5036517;28;1898;-55
2022/01/08 14:29:04;;;;;;;;;;;13.70;99.90;;;;;;5036818;28;1708;-54
2022/01/08 14:31:31;;;;;;;;;;;13.80;99.90;;;;;;5002408;28;962;-54
2022/01/08 14:34:03;;;;;;;;;;;13.70;99.90;;;;;;5018727;28;1175;-54
2022/01/08 14:36:38;;;;;;;;;;;13.70;99.90;;;;;;5037062;28;839;-54
2022/01/08 14:39:07;;;;;;;;;;;13.70;99.90;;;;;;5037072;28;866;-45
2022/01/08 14:41:34;;;;;;;;;;;13.70;99.90;;;;;;5032227;28;1504;-44
2022/01/08 14:44:02;;;;;;;;;;;13.70;99.90;;;;;;5036914;28;1909;-44
2022/01/08 14:46:28;;;;;;;;;;;13.60;99.90;;;;;;5036222;28;1182;-54
2022/01/08 14:48:56;;;;;;;;;;;13.60;99.90;;;;;;5036565;28;941;-54
2022/01/08 14:51:27;;;;;;;;;;;13.60;99.90;;;;;;5036590;28;787;-45
2022/01/08 14:53:54;;;;;;;;;;;13.60;99.90;;;;;;5036548;28;834;-44
2022/01/08 14:56:27;;;;;;;;;;;13.60;99.90;;;;;;5036766;28;776;-44
2022/01/08 14:58:55;;;;;;;;;;;13.60;99.90;;;;;;5002072;28;1049;-44
2022/01/08 15:01:23;;;;;;;;;;;13.60;99.90;;;;;;5019290;28;932;-44
2022/01/08 15:03:50;;;;;;;;;;;13.60;99.90;;;;;;5018204;28;884;-44
2022/01/08 15:06:16;;;;;;;;;;;13.60;99.90;;;;;;5002232;28;1981;-44
2022/01/08 15:08:44;;;;;;;;;;;13.60;99.90;;;;;;5035427;28;1378;-45
2022/01/08 15:11:13;;;;;;;;;;;13.60;99.90;;;;;;5034444;28;822;-44
2022/01/08 15:13:40;;;;;;;;;;;13.60;99.90;;;;;;5035645;28;1156;-44
2022/01/08 15:16:08;;;;;;;;;;;13.60;99.90;;;;;;4987021;28;909;-44
2022/01/08 15:18:37;;;;;;;;;;;13.60;99.90;;;;;;5036103;28;835;-54
2022/01/08 15:21:03;;;;;;;;;;;13.60;99.90;;;;;;5036108;28;856;-55